Time;durP1;ratioP1;P1;durP2;ratioP2;P2;SDS_P1;SDS_P2;PMS_P1;PMS_P2;Temp;Humidity;BMP_temperature;BMP_pressure;BME280_temperature;BME280_humidity;BME280_pressure;Samples;Min_cycle;Max_cycle;Signal;HPM_P1;HPM_P2
2023/01/12 00:01:26;;;;;;;3.55;1.20;;;;;;;5.74;78.71;101076.00;5007035;28;20136;-69
2023/01/12 00:03:52;;;;;;;11.70;6.75;;;;;;;5.56;81.88;101072.84;5005790;28;20057;-69
2023/01/12 00:06:19;;;;;;;15.00;8.40;;;;;;;5.24;85.10;101074.84;5006935;28;20150;-69
2023/01/12 00:08:45;;;;;;;12.38;6.35;;;;;;;5.03;87.06;101078.78;5002659;28;20121;-69
2023/01/12 00:11:11;;;;;;;8.65;4.40;;;;;;;5.09;85.71;101072.41;5006989;28;20060;-69
2023/01/12 00:13:37;;;;;;;9.18;4.25;;;;;;;5.16;85.38;101068.53;5009833;28;20533;-69
2023/01/12 00:18:47;;;;;;;13.70;8.02;;;;;;;4.96;87.52;101075.75;5011197;28;20048;-69
2023/01/12 00:21:14;;;;;;;15.27;8.98;;;;;;;4.83;89.18;101080.00;5015335;28;20398;-70
2023/01/12 00:23:41;;;;;;;14.52;7.97;;;;;;;4.75;90.80;101073.63;5011711;28;20052;-69
2023/01/12 00:26:07;;;;;;;11.05;6.50;;;;;;;4.79;90.72;101072.53;5012458;28;20037;-69
2023/01/12 00:28:35;;;;;;;15.98;7.95;;;;;;;4.82;89.55;101068.00;5015924;28;20040;-69
2023/01/12 00:31:01;;;;;;;13.55;7.30;;;;;;;4.85;90.07;101078.16;5009580;28;20034;-70
2023/01/12 00:33:27;;;;;;;17.98;9.70;;;;;;;4.85;91.84;101070.41;5016345;28;20591;-69
2023/01/12 00:35:53;;;;;;;15.98;8.70;;;;;;;4.79;92.72;101070.75;5007893;28;20041;-69
2023/01/12 00:38:18;;;;;;;15.50;8.35;;;;;;;4.77;93.07;101079.53;5017874;28;20047;-69
2023/01/12 00:40:43;;;;;;;15.82;8.55;;;;;;;4.73;93.95;101065.97;5007777;28;20072;-69
2023/01/12 00:45:53;;;;;;;16.05;9.20;;;;;;;4.75;94.25;101076.22;5011305;28;20099;-69
2023/01/12 00:48:18;;;;;;;17.27;8.73;;;;;;;4.76;93.43;101072.69;5013239;28;20113;-69
2023/01/12 00:50:46;;;;;;;13.65;8.20;;;;;;;4.75;93.22;101068.47;5012873;28;20120;-69
2023/01/12 00:53:12;;;;;;;14.40;9.13;;;;;;;4.73;92.60;101076.28;5010593;28;20036;-69
2023/01/12 00:55:38;;;;;;;15.85;9.20;;;;;;;4.71;92.68;101078.16;5012178;28;20042;-69
2023/01/12 00:58:04;;;;;;;21.40;9.70;;;;;;;4.69;93.05;101080.00;5009681;28;20065;-70
2023/01/12 01:00:29;;;;;;;16.17;9.05;;;;;;;4.69;93.39;101074.84;5011354;28;20076;-69
2023/01/12 01:02:55;;;;;;;16.23;8.40;;;;;;;4.74;94.65;101061.63;5015691;28;20026;-69
2023/01/12 01:05:20;;;;;;;14.75;8.23;;;;;;;4.74;95.53;101052.13;5014058;28;20044;-69
2023/01/12 01:07:46;;;;;;;10.75;6.88;;;;;;;4.76;97.10;101036.56;5009541;28;20394;-69
2023/01/12 01:10:13;;;;;;;11.88;6.45;;;;;;;4.75;97.58;101063.28;5011080;28;20103;-69
2023/01/12 01:12:39;;;;;;;10.00;6.07;;;;;;;4.77;95.24;101080.34;5015406;28;20040;-68
2023/01/12 01:15:05;;;;;;;8.50;5.20;;;;;;;4.85;94.06;101093.63;5008930;28;20160;-69
2023/01/12 01:17:31;;;;;;;11.55;3.67;;;;;;;4.92;92.90;101097.50;5010625;28;20026;-69
2023/01/12 01:19:56;;;;;;;8.00;3.72;;;;;;;5.07;90.50;101089.75;5008564;28;20053;-69
2023/01/12 01:22:22;;;;;;;9.30;4.10;;;;;;;5.20;88.70;101090.66;5021947;28;20048;-69
2023/01/12 01:24:47;;;;;;;7.18;3.47;;;;;;;5.25;88.92;101093.78;5013231;28;20063;-69
2023/01/12 01:27:13;;;;;;;7.40;3.42;;;;;;;5.27;89.60;101091.94;5014879;28;20042;-69
2023/01/12 01:29:39;;;;;;;6.78;3.17;;;;;;;5.28;88.34;101088.41;5007792;28;20405;-69
2023/01/12 01:32:05;;;;;;;5.78;2.70;;;;;;;5.51;84.86;101095.56;5010302;28;20112;-69
2023/01/12 01:34:30;;;;;;;3.78;1.65;;;;;;;5.61;81.38;101088.91;5014032;28;20076;-69
2023/01/12 01:36:56;;;;;;;2.78;1.02;;;;;;;5.82;80.79;101091.84;5007058;28;20034;-69
2023/01/12 01:39:21;;;;;;;4.38;0.95;;;;;;;5.89;79.63;101087.16;5017911;28;20092;-69
2023/01/12 01:41:47;;;;;;;2.40;0.90;;;;;;;5.99;77.52;101095.97;5008893;28;20017;-70
2023/01/12 01:44:28;;;;;;;5.32;0.63;;;;;;;6.14;72.92;101094.16;5011955;28;20029;-69
2023/01/12 01:47:05;;;;;;;1.70;0.60;;;;;;;6.19;73.57;101087.72;5010214;28;20045;-69
2023/01/12 01:49:50;;;;;;;2.92;0.80;;;;;;;6.19;75.82;101074.78;5011262;28;20500;-69
2023/01/12 01:52:20;;;;;;;1.45;0.50;;;;;;;6.20;77.28;101067.84;5005179;28;20076;-68
2023/01/12 01:54:51;;;;;;;2.65;1.05;;;;;;;6.08;79.57;101053.97;5013879;28;20379;-68
2023/01/12 01:57:18;;;;;;;4.75;1.73;;;;;;;5.92;82.12;101059.31;5009154;28;20045;-69
2023/01/12 01:59:49;;;;;;;3.92;1.95;;;;;;;5.79;84.22;101058.44;5011630;28;20471;-68
2023/01/12 02:02:16;;;;;;;5.47;2.10;;;;;;;5.70;85.98;101050.44;5008303;28;20092;-68
2023/01/12 02:04:42;;;;;;;3.85;1.90;;;;;;;5.62;87.58;101048.38;5013832;28;20029;-69
2023/01/12 02:07:09;;;;;;;3.33;1.70;;;;;;;5.56;88.73;101047.00;5010451;28;20034;-69
2023/01/12 02:09:35;;;;;;;2.92;1.65;;;;;;;5.52;91.21;101049.88;5008140;28;20029;-69
2023/01/12 02:18:09;;;;;;;2.67;1.38;;;;;;;5.39;91.66;101074.84;5007792;28;20049;-69
2023/01/12 02:20:55;;;;;;;4.78;1.65;;;;;;;5.32;92.96;101084.72;5006181;28;20472;-68
2023/01/12 02:23:45;;;;;;;5.93;1.73;;;;;;;5.31;92.46;101083.06;5008068;28;20143;-69
2023/01/12 02:26:23;;;;;;;5.57;1.58;;;;;;;5.32;93.07;101082.13;5009056;28;20030;-69
2023/01/12 02:29:13;;;;;;;3.10;1.33;;;;;;;5.33;89.80;101074.28;5009838;28;20029;-69
2023/01/12 02:32:07;;;;;;;4.40;1.25;;;;;;;5.36;92.48;101077.59;5008397;28;20034;-69
2023/01/12 02:34:57;;;;;;;2.63;0.77;;;;;;;5.48;87.94;101072.50;4988951;28;20046;-70
2023/01/12 02:37:41;;;;;;;3.75;0.70;;;;;;;5.71;86.03;101070.19;5002542;28;20034;-69
2023/01/12 02:40:30;;;;;;;4.68;1.02;;;;;;;5.90;83.84;101055.19;5008518;28;20029;-69
2023/01/12 02:43:21;;;;;;;2.95;0.70;;;;;;;6.00;80.79;101045.91;5008030;28;20166;-69
2023/01/12 02:45:57;;;;;;;3.92;1.23;;;;;;;6.07;82.13;101034.22;5008757;28;20073;-68
2023/01/12 02:48:23;;;;;;;3.10;0.80;;;;;;;6.08;83.69;101033.28;5002915;28;20068;-70
2023/01/12 02:51:10;;;;;;;2.70;0.60;;;;;;;6.15;81.14;101026.75;5012117;28;20073;-69
2023/01/12 02:53:43;;;;;;;0.85;0.30;;;;;;;6.27;81.20;101023.34;5008199;28;20494;-69
2023/01/12 02:56:13;;;;;;;1.98;0.50;;;;;;;6.36;82.03;101026.25;5007763;28;20037;-69
2023/01/12 02:58:47;;;;;;;1.80;0.57;;;;;;;6.43;79.85;101017.13;5008161;28;20061;-70
2023/01/12 03:01:15;;;;;;;2.45;0.70;;;;;;;6.45;81.66;101025.63;5013285;28;20401;-69
2023/01/12 03:03:41;;;;;;;3.60;0.80;;;;;;;6.38;83.02;101027.81;5008858;28;20044;-69
2023/01/12 03:06:07;;;;;;;3.22;1.35;;;;;;;6.25;84.99;101025.19;5013514;28;20029;-69
2023/01/12 03:08:37;;;;;;;4.20;2.20;;;;;;;6.09;87.01;101019.41;5010771;28;20026;-69
2023/01/12 03:11:22;;;;;;;5.70;2.50;;;;;;;5.94;88.84;101017.84;5009098;28;20054;-69
2023/01/12 03:13:50;;;;;;;4.57;2.22;;;;;;;5.83;89.84;101012.50;5004502;28;20026;-69
2023/01/12 03:16:24;;;;;;;6.30;1.55;;;;;;;5.78;90.49;101006.81;5014153;28;20445;-69
2023/01/12 03:19:02;;;;;;;4.15;1.65;;;;;;;5.72;91.05;101014.97;5012079;28;20426;-69
2023/01/12 03:21:33;;;;;;;2.83;1.27;;;;;;;5.68;91.07;101028.09;5006353;28;20521;-69
2023/01/12 03:24:08;;;;;;;4.47;1.25;;;;;;;5.60;91.06;101040.72;5009945;28;20034;-69
2023/01/12 03:26:37;;;;;;;2.67;1.42;;;;;;;5.54;90.48;101051.44;5004477;28;20030;-69
2023/01/12 03:29:15;;;;;;;4.13;1.60;;;;;;;5.50;90.51;101068.06;5012411;28;20034;-69
2023/01/12 03:31:41;;;;;;;4.50;2.15;;;;;;;5.45;91.66;101077.88;5012267;28;20075;-69
2023/01/12 03:34:08;;;;;;;4.50;2.03;;;;;;;5.39;92.46;101080.81;5010176;28;20025;-69
2023/01/12 03:37:06;;;;;;;3.33;1.85;;;;;;;5.32;92.29;101084.72;5007026;28;20041;-69
2023/01/12 03:40:01;;;;;;;5.47;2.45;;;;;;;5.27;92.81;101089.34;4985754;28;20050;-69
2023/01/12 03:42:42;;;;;;;4.85;2.13;;;;;;;5.26;93.42;101087.69;4984174;28;20557;-69
2023/01/12 03:45:26;;;;;;;3.28;1.80;;;;;;;5.24;93.90;101092.94;4988116;28;20114;-69
2023/01/12 03:48:02;;;;;;;4.07;1.75;;;;;;;5.21;94.39;101100.06;4987723;28;20454;-69
2023/01/12 03:50:35;;;;;;;4.82;1.80;;;;;;;5.22;94.26;101099.13;4987027;28;20494;-69
2023/01/12 03:53:04;;;;;;;3.75;1.50;;;;;;;5.22;94.85;101104.28;4984884;28;20081;-69
2023/01/12 03:55:32;;;;;;;3.33;1.77;;;;;;;5.17;95.36;101107.19;4993968;28;20031;-69
2023/01/12 03:57:58;;;;;;;4.75;2.53;;;;;;;5.10;95.99;101110.25;4992232;28;20042;-69
2023/01/12 04:00:28;;;;;;;3.38;1.35;;;;;;;5.12;93.05;101106.63;4994666;28;20619;-70
2023/01/12 04:03:07;;;;;;;2.30;1.25;;;;;;;5.26;91.36;101109.19;4990592;28;20054;-70
2023/01/12 04:05:32;;;;;;;3.22;1.30;;;;;;;5.37;91.96;101111.09;4991502;28;20038;-69
2023/01/12 04:07:58;;;;;;;4.75;1.08;;;;;;;5.42;92.11;101111.66;4991181;28;20033;-69
2023/01/12 04:10:23;;;;;;;2.25;1.10;;;;;;;5.38;93.46;101102.44;4994023;28;20042;-69
2023/01/12 04:12:49;;;;;;;2.67;0.60;;;;;;;5.44;93.04;101106.38;4991415;28;20092;-69
2023/01/12 04:15:14;;;;;;;1.80;0.88;;;;;;;5.50;92.58;101104.25;5001670;28;20410;-69
2023/01/12 04:17:40;;;;;;;4.63;0.82;;;;;;;5.45;94.19;101111.47;5015114;28;20034;-69
2023/01/12 04:20:08;;;;;;;2.83;0.95;;;;;;;5.37;95.90;101111.09;5009476;28;20396;-70
2023/01/12 04:22:42;;;;;;;5.55;1.30;;;;;;;5.31;96.59;101124.41;5010327;28;20184;-69
2023/01/12 04:25:17;;;;;;;1.85;0.63;;;;;;;5.39;94.11;101122.19;5010854;28;20034;-69
2023/01/12 04:27:52;;;;;;;2.35;0.55;;;;;;;5.80;90.79;101118.72;5012569;28;20030;-69
2023/01/12 04:30:21;;;;;;;3.95;0.50;;;;;;;6.11;86.97;101126.22;5008547;28;20026;-69
2023/01/12 04:32:47;;;;;;;2.35;0.40;;;;;;;6.23;85.04;101120.22;5008008;28;20029;-69
2023/01/12 04:35:12;;;;;;;3.47;0.80;;;;;;;6.27;83.55;101119.09;5012560;28;20030;-69
2023/01/12 04:37:39;;;;;;;4.15;0.52;;;;;;;6.27;83.95;101113.09;5012162;28;20038;-70
2023/01/12 04:40:06;;;;;;;2.95;1.33;;;;;;;6.20;82.79;101117.84;5010716;28;20508;-69
2023/01/12 04:45:16;;;;;;;4.70;1.55;;;;;;;6.02;85.10;101124.22;5010236;28;20065;-69
2023/01/12 04:47:42;;;;;;;2.40;1.00;;;;;;;6.04;85.65;101124.97;5009024;28;20479;-69
2023/01/12 04:50:08;;;;;;;3.10;0.90;;;;;;;6.05;85.11;101130.97;5009985;28;20062;-70
2023/01/12 04:52:35;;;;;;;2.13;0.50;;;;;;;6.17;83.23;101130.13;5010875;28;20076;-69
2023/01/12 04:55:00;;;;;;;1.60;0.50;;;;;;;6.26;82.17;101126.97;5009404;28;20492;-69
2023/01/12 04:57:26;;;;;;;1.88;0.70;;;;;;;6.28;82.46;101123.34;5010597;28;20042;-69
2023/01/12 04:59:51;;;;;;;2.17;0.70;;;;;;;6.30;81.28;101124.06;5010553;28;20486;-70
2023/01/12 05:02:18;;;;;;;1.92;0.50;;;;;;;6.44;79.65;101128.34;5014005;28;20053;-71
2023/01/12 05:04:45;;;;;;;1.98;0.40;;;;;;;6.54;79.20;101129.41;5010720;28;20032;-70
2023/01/12 05:07:11;;;;;;;2.15;0.50;;;;;;;6.50;80.64;101129.69;5011162;28;20037;-70
2023/01/12 05:12:21;;;;;;;1.70;0.40;;;;;;;6.30;84.17;101142.19;5016407;28;20052;-70
2023/01/12 05:14:48;;;;;;;2.60;0.70;;;;;;;6.16;86.42;101154.34;5010704;28;20034;-70
2023/01/12 05:17:13;;;;;;;1.58;0.60;;;;;;;6.18;84.32;101166.25;4994486;28;20032;-69
2023/01/12 05:19:39;;;;;;;3.67;0.70;;;;;;;6.21;85.16;101170.41;5015239;28;20042;-70
2023/01/12 05:22:04;;;;;;;2.60;0.80;;;;;;;6.11;86.88;101177.13;5013028;28;20466;-70
2023/01/12 05:24:30;;;;;;;3.00;0.75;;;;;;;5.99;87.83;101161.47;5005622;28;20144;-69
2023/01/12 05:26:55;;;;;;;2.00;1.27;;;;;;;5.95;87.94;101164.34;5012407;28;20114;-69
2023/01/12 05:29:20;;;;;;;2.28;0.90;;;;;;;5.92;88.68;101159.38;5011445;28;20092;-69
2023/01/12 05:31:46;;;;;;;6.13;1.98;;;;;;;5.83;89.98;101163.34;5015244;28;20056;-70
2023/01/12 05:34:12;;;;;;;4.22;1.98;;;;;;;5.82;89.80;101166.00;5011817;28;20133;-70
2023/01/12 05:36:38;;;;;;;3.97;1.25;;;;;;;5.90;88.50;101169.81;5008899;28;20037;-69
2023/01/12 05:39:04;;;;;;;6.07;1.20;;;;;;;5.88;88.23;101170.81;5005295;28;20035;-69
2023/01/12 05:41:30;;;;;;;4.28;1.23;;;;;;;5.89;88.00;101169.91;5012587;28;20041;-69
2023/01/12 05:43:55;;;;;;;2.47;0.80;;;;;;;5.90;87.50;101176.75;5010263;28;20038;-69
2023/01/12 05:46:26;;;;;;;2.35;0.70;;;;;;;5.87;87.34;101171.72;5008501;28;20033;-69
2023/01/12 05:48:54;;;;;;;3.53;1.80;;;;;;;5.74;89.05;101182.00;5002026;28;20178;-69
2023/01/12 05:51:20;;;;;;;5.22;2.60;;;;;;;5.63;89.64;101172.34;5008759;28;20043;-70
2023/01/12 05:53:46;;;;;;;6.18;3.28;;;;;;;5.52;90.99;101184.28;5007215;28;20063;-70
2023/01/12 05:56:21;;;;;;;8.73;4.50;;;;;;;5.44;91.27;101191.66;5017297;28;20025;-70
2023/01/12 05:59:00;;;;;;;8.03;4.20;;;;;;;5.37;92.17;101203.31;5000302;28;20058;-69
2023/01/12 06:01:27;;;;;;;8.48;4.50;;;;;;;5.27;93.74;101208.19;5000457;28;20124;-70
2023/01/12 06:03:55;;;;;;;10.63;4.63;;;;;;;5.17;94.67;101204.53;5005840;28;20034;-69
2023/01/12 06:06:22;;;;;;;8.00;4.47;;;;;;;5.09;95.60;101202.41;5014555;28;20029;-70
2023/01/12 06:08:48;;;;;;;8.70;4.32;;;;;;;5.04;95.73;101206.16;5005656;28;20026;-69
2023/01/12 06:14:01;;;;;;;11.43;3.50;;;;;;;5.30;92.01;101208.00;5009658;28;20041;-69
2023/01/12 06:16:27;;;;;;;8.27;2.42;;;;;;;5.57;88.05;101224.44;5008684;28;20057;-69
2023/01/12 06:18:54;;;;;;;5.68;1.83;;;;;;;5.64;87.91;101215.38;5011516;28;20112;-69
2023/01/12 06:21:20;;;;;;;5.00;1.60;;;;;;;5.75;86.05;101219.88;4992747;28;20140;-69
2023/01/12 06:23:45;;;;;;;4.05;1.33;;;;;;;5.82;84.30;101220.31;5000605;28;20308;-70
2023/01/12 06:26:10;;;;;;;6.32;1.60;;;;;;;5.81;85.49;101218.66;5008491;28;20053;-69
2023/01/12 06:28:37;;;;;;;5.20;1.17;;;;;;;5.81;85.32;101221.25;5012305;28;20040;-69
2023/01/12 06:31:05;;;;;;;7.20;1.88;;;;;;;5.80;85.45;101229.94;5009507;28;20109;-69
2023/01/12 06:33:31;;;;;;;7.18;2.22;;;;;;;5.76;85.88;101233.63;5010603;28;20038;-68
2023/01/12 06:35:57;;;;;;;4.97;1.80;;;;;;;5.79;85.46;101239.44;5001521;28;20033;-69
2023/01/12 06:38:26;;;;;;;3.83;1.70;;;;;;;5.87;84.22;101249.31;4999199;28;20034;-69
2023/01/12 06:40:51;;;;;;;4.30;1.65;;;;;;;5.90;84.20;101251.75;4993719;28;20030;-69
2023/01/12 06:43:17;;;;;;;4.20;1.40;;;;;;;5.84;85.09;101258.09;4992071;28;20037;-69
2023/01/12 06:45:43;;;;;;;5.15;1.55;;;;;;;5.87;84.45;101272.59;4995040;28;20207;-69
2023/01/12 06:48:09;;;;;;;5.00;1.10;;;;;;;5.92;83.19;101271.41;4992626;28;20034;-68
2023/01/12 06:50:35;;;;;;;2.78;1.13;;;;;;;5.94;83.52;101274.75;4991438;28;20083;-69
2023/01/12 06:53:03;;;;;;;4.97;1.25;;;;;;;5.98;83.14;101275.38;4996264;28;20062;-68
2023/01/12 06:55:29;;;;;;;2.50;0.88;;;;;;;5.98;83.22;101286.56;4997314;28;20409;-69
2023/01/12 06:57:54;;;;;;;4.25;1.30;;;;;;;5.94;83.27;101290.25;4992064;28;21148;-69
2023/01/12 07:00:20;;;;;;;3.35;1.20;;;;;;;5.89;83.68;101292.28;4995395;28;20057;-69
2023/01/12 07:02:50;;;;;;;2.85;1.60;;;;;;;5.86;82.94;101297.63;5009577;28;20026;-69
2023/01/12 07:05:16;;;;;;;5.15;1.30;;;;;;;5.79;84.66;101296.34;5007527;28;20029;-69
2023/01/12 07:07:42;;;;;;;3.58;1.55;;;;;;;5.73;84.78;101295.88;5002688;28;20087;-69
2023/01/12 07:10:09;;;;;;;4.97;1.92;;;;;;;5.66;84.74;101288.50;5005165;28;20026;-70
2023/01/12 07:12:35;;;;;;;14.48;2.10;;;;;;;5.61;84.81;101287.97;5012273;28;20334;-69
2023/01/12 07:15:00;;;;;;;4.03;1.13;;;;;;;5.60;84.80;101286.28;5008476;28;20022;-69
2023/01/12 07:17:25;;;;;;;4.22;1.38;;;;;;;5.62;84.59;101293.97;5001198;28;20136;-69
2023/01/12 07:19:51;;;;;;;6.25;1.80;;;;;;;5.60;84.41;101286.28;5006462;28;20048;-69
2023/01/12 07:22:16;;;;;;;4.38;1.60;;;;;;;5.63;83.72;101291.28;5007302;28;20196;-69
2023/01/12 07:24:42;;;;;;;7.07;2.03;;;;;;;5.67;83.88;101291.94;5008297;28;20515;-68
2023/01/12 07:27:07;;;;;;;3.13;1.20;;;;;;;5.66;83.08;101291.09;5008312;28;20034;-69
2023/01/12 07:29:33;;;;;;;4.28;1.77;;;;;;;5.68;83.46;101289.22;5008654;28;20026;-69
2023/01/12 07:31:58;;;;;;;3.90;1.10;;;;;;;5.71;83.76;101297.72;5012335;28;20029;-69
2023/01/12 07:34:24;;;;;;;7.32;1.95;;;;;;;5.67;83.24;101295.31;5009929;28;20041;-69
2023/01/12 07:36:50;;;;;;;4.75;1.80;;;;;;;5.68;83.24;101293.56;5009461;28;20030;-70
2023/01/12 07:39:16;;;;;;;7.55;2.00;;;;;;;5.72;82.35;101292.44;5004462;28;20045;-69
2023/01/12 07:44:26;;;;;;;6.53;2.35;;;;;;;5.62;84.21;101286.19;5006599;28;20060;-69
2023/01/12 07:46:51;;;;;;;14.27;5.38;;;;;;;5.62;83.66;101294.78;5007252;28;20476;-70
2023/01/12 07:49:16;;;;;;;10.20;3.75;;;;;;;5.60;83.25;101294.06;5008267;28;20159;-69
2023/01/12 07:51:42;;;;;;;8.77;2.92;;;;;;;5.58;83.66;101295.06;5003610;28;20077;-70
2023/01/12 07:54:08;;;;;;;6.82;2.28;;;;;;;5.57;84.08;101296.81;5008314;28;20041;-70
2023/01/12 07:56:34;;;;;;;7.72;2.63;;;;;;;5.62;83.09;101289.63;5008251;28;20111;-69
2023/01/12 07:59:00;;;;;;;5.78;2.38;;;;;;;5.66;82.57;101296.28;5011252;28;20030;-70
2023/01/12 08:01:25;;;;;;;5.03;1.85;;;;;;;5.75;81.73;101292.25;5008208;28;20421;-69
2023/01/12 08:03:51;;;;;;;4.55;1.80;;;;;;;5.84;81.15;101293.47;5008570;28;20077;-69
2023/01/12 08:06:17;;;;;;;5.07;1.25;;;;;;;5.84;81.26;101291.72;5010067;28;20371;-68
2023/01/12 08:08:43;;;;;;;2.40;0.60;;;;;;;5.90;81.16;101298.28;5006876;28;20109;-70
2023/01/12 08:11:10;;;;;;;3.67;0.90;;;;;;;5.90;81.09;101298.28;5008114;28;20184;-69
2023/01/12 08:13:36;;;;;;;4.07;1.20;;;;;;;5.89;81.20;101305.22;5004933;28;20034;-69
2023/01/12 08:16:07;;;;;;;5.45;0.88;;;;;;;5.89;80.87;101309.56;5014377;28;20072;-68
2023/01/12 08:18:45;;;;;;;6.75;1.00;;;;;;;5.87;81.84;101308.78;5007800;28;20037;-69
2023/01/12 08:21:17;;;;;;;3.35;1.02;;;;;;;5.94;81.12;101316.13;5011493;28;20030;-69
2023/01/12 08:23:48;;;;;;;1.90;0.80;;;;;;;6.01;80.60;101319.16;5007169;28;20331;-69
2023/01/12 08:26:18;;;;;;;4.18;1.17;;;;;;;6.15;80.23;101328.63;5007859;28;20037;-69
2023/01/12 08:28:49;;;;;;;5.13;1.70;;;;;;;6.18;81.56;101325.88;5011020;28;20029;-69
2023/01/12 08:31:17;;;;;;;11.15;1.63;;;;;;;6.18;81.40;101334.47;5005426;28;20037;-69
2023/01/12 08:33:44;;;;;;;2.45;0.80;;;;;;;6.39;79.84;101332.31;5009690;28;20790;-69
2023/01/12 08:36:13;;;;;;;4.95;1.15;;;;;;;6.49;79.68;101335.13;5004194;28;20426;-69
2023/01/12 08:38:39;;;;;;;5.05;1.40;;;;;;;6.57;78.92;101335.50;5009224;28;23543;-69
2023/01/12 08:44:00;;;;;;;7.53;1.30;;;;;;;6.79;79.77;101346.13;5010252;28;20049;-68
2023/01/12 08:46:31;;;;;;;2.85;0.90;;;;;;;6.88;79.70;101345.53;5014656;28;20034;-68
2023/01/12 08:48:56;;;;;;;4.25;1.20;;;;;;;6.97;79.54;101350.13;5016257;28;20038;-68
2023/01/12 08:51:22;;;;;;;8.07;1.58;;;;;;;7.10;78.97;101354.47;5013769;28;20329;-68
2023/01/12 08:53:47;;;;;;;8.65;1.30;;;;;;;7.21;77.72;101364.97;5010119;28;20032;-68
2023/01/12 08:56:13;;;;;;;6.75;1.48;;;;;;;7.31;76.88;101366.88;5011279;28;20080;-68
2023/01/12 08:58:39;;;;;;;4.25;1.77;;;;;;;7.38;77.31;101372.47;5012829;28;20038;-69
2023/01/12 09:01:29;;;;;;;3.90;0.90;;;;;;;7.42;77.97;101379.13;5013784;28;20058;-68
2023/01/12 09:03:56;;;;;;;3.60;0.98;;;;;;;7.39;78.61;101387.09;5016275;28;20137;-69
2023/01/12 09:06:24;;;;;;;5.82;1.65;;;;;;;7.47;78.46;101384.84;5011457;28;20112;-68
2023/01/12 09:08:55;;;;;;;7.15;1.42;;;;;;;7.73;76.48;101396.03;5012743;28;20045;-69
2023/01/12 09:11:21;;;;;;;5.72;1.10;;;;;;;7.79;77.45;101393.03;5009256;28;20087;-69
2023/01/12 09:13:47;;;;;;;3.17;1.23;;;;;;;7.81;77.68;101392.94;5008481;28;20060;-69
2023/01/12 09:16:14;;;;;;;2.10;0.60;;;;;;;7.87;74.54;101392.50;5009175;28;20065;-69
2023/01/12 09:18:40;;;;;;;4.68;1.10;;;;;;;7.97;75.05;101393.56;5008595;28;20075;-69
2023/01/12 09:21:11;;;;;;;4.72;0.65;;;;;;;8.04;75.63;101394.75;5007702;28;20052;-70
2023/01/12 09:23:37;;;;;;;6.32;0.80;;;;;;;8.11;75.19;101401.19;5011976;28;20030;-70
2023/01/12 09:26:10;;;;;;;3.13;0.80;;;;;;;8.13;75.75;101394.13;5008310;28;20059;-69
2023/01/12 09:28:45;;;;;;;3.08;0.77;;;;;;;8.15;75.12;101392.25;5007561;28;20477;-69
2023/01/12 09:31:15;;;;;;;3.95;0.95;;;;;;;8.14;76.01;101393.19;5006479;28;20110;-70
2023/01/12 09:33:41;;;;;;;3.13;0.98;;;;;;;8.26;74.35;101388.94;5005180;28;20061;-69
2023/01/12 09:36:19;;;;;;;2.20;0.80;;;;;;;8.27;72.20;101390.59;5009962;28;20033;-69
2023/01/12 09:38:46;;;;;;;3.55;0.77;;;;;;;8.31;75.30;101390.25;5011367;28;20042;-70
2023/01/12 09:47:39;;;;;;;3.08;0.73;;;;;;;8.45;75.40;101399.72;5008349;28;20098;-70
2023/01/12 09:50:13;;;;;;;3.05;1.52;;;;;;;8.50;75.16;101395.03;5009855;28;20153;-70
2023/01/12 09:53:22;;;;;;;5.43;1.20;;;;;;;8.53;72.72;101397.38;5009634;28;20461;-70
2023/01/12 09:56:04;;;;;;;3.95;1.25;;;;;;;8.67;72.69;101396.41;5007370;28;20095;-69
2023/01/12 09:58:32;;;;;;;5.45;1.13;;;;;;;8.78;74.79;101404.28;5009569;28;20038;-69
2023/01/12 10:01:06;;;;;;;3.85;1.13;;;;;;;8.87;73.82;101388.03;5009630;28;20482;-70
2023/01/12 10:03:37;;;;;;;4.68;1.25;;;;;;;8.87;75.29;101397.59;5008981;28;20075;-69
2023/01/12 10:06:04;;;;;;;4.18;1.10;;;;;;;8.84;75.68;101397.81;5009425;28;20382;-69
2023/01/12 10:08:41;;;;;;;2.10;0.93;;;;;;;8.78;74.44;101391.28;5008994;28;20030;-70
2023/01/12 10:11:54;;;;;;;2.95;0.95;;;;;;;8.72;72.36;101391.72;5009764;28;20132;-70
2023/01/12 10:14:32;;;;;;;4.70;0.80;;;;;;;8.81;73.33;101390.25;5005528;28;20092;-69
2023/01/12 10:17:12;;;;;;;5.70;1.67;;;;;;;8.87;73.14;101382.00;5009559;28;20041;-70
2023/01/12 10:19:56;;;;;;;4.82;1.20;;;;;;;8.89;74.09;101383.53;5008303;28;20057;-70
2023/01/12 10:22:36;;;;;;;3.20;0.70;;;;;;;8.90;75.35;101377.41;5007753;28;20409;-69
2023/01/12 10:25:17;;;;;;;4.88;1.63;;;;;;;8.97;75.13;101370.00;5009166;28;20041;-70
2023/01/12 10:27:46;;;;;;;4.78;1.50;;;;;;;9.13;74.31;101377.47;5006921;28;20044;-70
2023/01/12 10:30:16;;;;;;;6.80;2.10;;;;;;;9.19;74.20;101370.06;5009294;28;20041;-69
2023/01/12 10:32:42;;;;;;;5.10;1.45;;;;;;;9.25;74.33;101367.00;5007244;28;20053;-69
2023/01/12 10:35:16;;;;;;;3.28;1.55;;;;;;;9.25;73.69;101359.22;5007317;28;20124;-70
2023/01/12 10:37:44;;;;;;;2.38;0.98;;;;;;;9.31;74.52;101360.53;5007862;28;20339;-70
2023/01/12 10:40:22;;;;;;;3.60;1.20;;;;;;;9.42;70.36;101355.34;5005897;28;20037;-70
2023/01/12 10:43:18;;;;;;;2.83;1.00;;;;;;;9.48;73.10;101360.06;4997899;28;20037;-70
2023/01/12 10:46:09;;;;;;;4.85;1.33;;;;;;;9.54;72.52;101354.41;5022455;28;20041;-70
2023/01/12 10:48:37;;;;;;;3.00;1.08;;;;;;;9.54;73.91;101350.97;5006926;28;20038;-69
2023/01/12 10:51:24;;;;;;;4.13;0.88;;;;;;;9.49;74.33;101342.69;5008819;28;20048;-68
2023/01/12 10:54:07;;;;;;;2.35;0.90;;;;;;;9.51;72.93;101339.03;5015066;28;20449;-68
2023/01/12 10:56:38;;;;;;;3.65;1.00;;;;;;;9.63;71.94;101342.47;5008145;28;20072;-68
2023/01/12 10:59:09;;;;;;;3.60;1.65;;;;;;;9.69;71.05;101346.38;5006918;28;20091;-72
2023/01/12 11:02:12;;;;;;;2.88;1.23;;;;;;;9.73;69.82;101340.84;5010736;28;20038;-68
2023/01/12 11:04:46;;;;;;;2.35;1.42;;;;;;;9.75;71.02;101338.09;5004810;28;20026;-68
2023/01/12 11:07:27;;;;;;;2.28;0.90;;;;;;;9.82;69.91;101331.50;5007402;28;20032;-68
2023/01/12 11:09:54;;;;;;;1.52;0.70;;;;;;;9.88;71.60;101331.03;5008343;28;20084;-67
2023/01/12 11:12:22;;;;;;;1.35;0.70;;;;;;;9.91;71.69;101339.41;5006296;28;20033;-67
2023/01/12 11:15:14;;;;;;;2.05;0.77;;;;;;;9.96;71.66;101339.88;5010120;28;20133;-67
2023/01/12 11:17:49;;;;;;;1.88;0.80;;;;;;;9.96;72.51;101337.25;5006242;28;20041;-67
2023/01/12 11:20:19;;;;;;;4.68;0.98;;;;;;;9.98;72.04;101337.13;5010019;28;20049;-67
2023/01/12 11:22:46;;;;;;;3.25;1.05;;;;;;;10.05;71.73;101327.91;5010401;28;20105;-68
2023/01/12 11:25:23;;;;;;;4.65;0.95;;;;;;;10.01;72.34;101326.50;5012964;28;20140;-68
2023/01/12 11:28:13;;;;;;;2.70;1.02;;;;;;;9.88;72.36;101328.41;5003222;28;20126;-68
2023/01/12 11:30:46;;;;;;;4.53;0.80;;;;;;;9.85;72.37;101320.84;5008553;28;20144;-68
2023/01/12 11:33:25;;;;;;;5.22;1.65;;;;;;;9.91;71.77;101321.19;5006165;28;20057;-68
2023/01/12 11:36:00;;;;;;;4.40;1.52;;;;;;;9.94;72.82;101326.13;5007251;28;20190;-67
2023/01/12 11:38:37;;;;;;;3.08;1.90;;;;;;;10.07;71.47;101328.63;5011074;28;20036;-68
2023/01/12 11:41:09;;;;;;;8.02;2.20;;;;;;;10.22;71.14;101329.22;5009861;28;20037;-68
2023/01/12 11:43:51;;;;;;;3.78;1.08;;;;;;;10.27;69.47;101322.72;5009327;28;20545;-68
2023/01/12 11:46:27;;;;;;;3.83;0.80;;;;;;;10.30;68.89;101322.47;5008499;28;20041;-68
2023/01/12 11:49:03;;;;;;;2.95;0.75;;;;;;;10.31;69.13;101310.28;5007294;28;20057;-69
2023/01/12 11:51:29;;;;;;;2.47;0.85;;;;;;;10.33;68.93;101302.34;5008008;28;20030;-70
2023/01/12 11:53:55;;;;;;;2.03;0.77;;;;;;;10.31;70.40;101289.44;5013099;28;20040;-69
2023/01/12 11:56:34;;;;;;;3.65;0.80;;;;;;;10.37;69.21;101288.13;5009347;28;20038;-69
2023/01/12 11:59:25;;;;;;;4.43;1.00;;;;;;;10.48;66.74;101291.50;5012866;28;20088;-69
2023/01/12 12:02:22;;;;;;;8.90;1.15;;;;;;;10.47;64.79;101286.41;5008041;28;20030;-69
2023/01/12 12:05:05;;;;;;;2.67;0.85;;;;;;;10.51;66.29;101277.38;5008038;28;20125;-68
2023/01/12 12:07:47;;;;;;;2.42;0.80;;;;;;;10.58;68.24;101273.34;5007281;28;20589;-69
2023/01/12 12:10:26;;;;;;;2.08;0.73;;;;;;;10.55;67.17;101265.78;5007494;28;20033;-68
2023/01/12 12:13:10;;;;;;;4.18;1.25;;;;;;;10.50;64.97;101265.31;5012596;28;20041;-68
2023/01/12 12:15:48;;;;;;;2.08;0.70;;;;;;;10.52;68.95;101269.44;5007368;28;20021;-69
2023/01/12 12:18:45;;;;;;;3.20;0.90;;;;;;;10.51;68.09;101261.75;5012178;28;20408;-70
2023/01/12 12:21:39;;;;;;;2.97;0.65;;;;;;;10.43;67.10;101259.78;5009420;28;20041;-68